Terminal Aerodrome Forecast
Issued by NWS

Home | Current Version | Previous Version | Text Only | Print | Product List | Glossary On
Versions: 1 2 3 4 5 6 7 8 9 10 11 12 13 14 15 16 17 18 19 20 21 22 23 24 25
000
FTUS45 KREV 260500
TAFRNO
TAF
KRNO 260520Z 2606/2706 VRB04KT P6SM SKC
     FM262300 27010G18KT P6SM FEW100 SCT200
     FM270500 VRB03KT P6SM FEW100 SCT200=

USA.gov is the U.S. government's official web portal to all federal, state and local government web resources and services.